sensor_id;sensor_type;location;lat;lon;timestamp;temperature;humidity
27266;DHT22;14766;51.380;13.762;2023-05-16T00:00:47;18.50;55.40
27266;DHT22;14766;51.380;13.762;2023-05-16T00:03:14;18.50;55.30
27266;DHT22;14766;51.380;13.762;2023-05-16T00:05:41;18.50;55.40
27266;DHT22;14766;51.380;13.762;2023-05-16T00:08:08;18.50;55.30
27266;DHT22;14766;51.380;13.762;2023-05-16T00:10:35;18.50;55.40
27266;DHT22;14766;51.380;13.762;2023-05-16T00:13:03;18.50;55.40
27266;DHT22;14766;51.380;13.762;2023-05-16T00:15:30;18.40;55.30
27266;DHT22;14766;51.380;13.762;2023-05-16T00:17:58;18.40;55.40
27266;DHT22;14766;51.380;13.762;2023-05-16T00:20:26;18.40;55.40
27266;DHT22;14766;51.380;13.762;2023-05-16T00:22:54;18.40;55.60
27266;DHT22;14766;51.380;13.762;2023-05-16T00:25:22;18.40;55.60
27266;DHT22;14766;51.380;13.762;2023-05-16T00:27:49;18.30;55.60
27266;DHT22;14766;51.380;13.762;2023-05-16T00:30:16;18.30;55.50
27266;DHT22;14766;51.380;13.762;2023-05-16T00:32:43;18.30;55.60
27266;DHT22;14766;51.380;13.762;2023-05-16T00:35:11;18.30;55.60
27266;DHT22;14766;51.380;13.762;2023-05-16T00:37:38;18.20;55.60
27266;DHT22;14766;51.380;13.762;2023-05-16T00:40:06;18.20;55.50
27266;DHT22;14766;51.380;13.762;2023-05-16T00:42:34;18.20;55.60
27266;DHT22;14766;51.380;13.762;2023-05-16T00:45:03;18.30;55.60
27266;DHT22;14766;51.380;13.762;2023-05-16T00:47:31;18.20;55.60
27266;DHT22;14766;51.380;13.762;2023-05-16T00:49:59;18.20;55.50
27266;DHT22;14766;51.380;13.762;2023-05-16T00:52:26;18.20;55.70
27266;DHT22;14766;51.380;13.762;2023-05-16T00:54:54;18.10;55.70
27266;DHT22;14766;51.380;13.762;2023-05-16T00:57:21;18.10;55.60
27266;DHT22;14766;51.380;13.762;2023-05-16T00:59:49;18.10;55.60
27266;DHT22;14766;51.380;13.762;2023-05-16T01:02:16;18.10;55.70
27266;DHT22;14766;51.380;13.762;2023-05-16T01:04:44;18.10;55.80
27266;DHT22;14766;51.380;13.762;2023-05-16T01:07:11;18.00;55.80
27266;DHT22;14766;51.380;13.762;2023-05-16T01:09:39;18.00;55.80
27266;DHT22;14766;51.380;13.762;2023-05-16T01:15:08;18.00;56.00
27266;DHT22;14766;51.380;13.762;2023-05-16T01:28:15;17.90;56.10
27266;DHT22;14766;51.380;13.762;2023-05-16T01:30:43;17.90;56.10
27266;DHT22;14766;51.380;13.762;2023-05-16T01:33:10;17.80;56.10
27266;DHT22;14766;51.380;13.762;2023-05-16T01:35:50;17.80;56.20
27266;DHT22;14766;51.380;13.762;2023-05-16T01:38:31;17.80;56.30
27266;DHT22;14766;51.380;13.762;2023-05-16T01:41:11;17.80;56.40
27266;DHT22;14766;51.380;13.762;2023-05-16T01:43:44;17.80;56.50
27266;DHT22;14766;51.380;13.762;2023-05-16T01:46:26;17.70;56.80
27266;DHT22;14766;51.380;13.762;2023-05-16T01:49:22;17.70;56.70
27266;DHT22;14766;51.380;13.762;2023-05-16T01:51:54;17.70;56.70
27266;DHT22;14766;51.380;13.762;2023-05-16T01:54:24;17.60;56.70
27266;DHT22;14766;51.380;13.762;2023-05-16T01:56:55;17.60;56.90
27266;DHT22;14766;51.380;13.762;2023-05-16T01:59:24;17.50;57.10
27266;DHT22;14766;51.380;13.762;2023-05-16T02:01:53;17.50;57.10
27266;DHT22;14766;51.380;13.762;2023-05-16T02:04:21;17.50;57.20
27266;DHT22;14766;51.380;13.762;2023-05-16T02:06:48;17.50;57.50
27266;DHT22;14766;51.380;13.762;2023-05-16T02:09:15;17.40;57.30
27266;DHT22;14766;51.380;13.762;2023-05-16T02:11:42;17.40;57.50
27266;DHT22;14766;51.380;13.762;2023-05-16T02:14:09;17.40;57.40
27266;DHT22;14766;51.380;13.762;2023-05-16T02:16:36;17.30;57.30
27266;DHT22;14766;51.380;13.762;2023-05-16T02:19:03;17.30;57.40
27266;DHT22;14766;51.380;13.762;2023-05-16T02:21:30;17.30;57.30
27266;DHT22;14766;51.380;13.762;2023-05-16T02:23:57;17.30;57.50
27266;DHT22;14766;51.380;13.762;2023-05-16T02:26:25;17.30;57.40
27266;DHT22;14766;51.380;13.762;2023-05-16T02:28:52;17.30;57.50
27266;DHT22;14766;51.380;13.762;2023-05-16T02:31:27;17.20;57.60
27266;DHT22;14766;51.380;13.762;2023-05-16T02:33:54;17.20;57.60
27266;DHT22;14766;51.380;13.762;2023-05-16T02:36:21;17.20;57.50
27266;DHT22;14766;51.380;13.762;2023-05-16T02:38:48;17.20;57.60
27266;DHT22;14766;51.380;13.762;2023-05-16T02:41:15;17.20;57.60
27266;DHT22;14766;51.380;13.762;2023-05-16T02:43:42;17.20;57.60
27266;DHT22;14766;51.380;13.762;2023-05-16T02:46:23;17.20;57.50
27266;DHT22;14766;51.380;13.762;2023-05-16T02:48:50;17.10;57.50
27266;DHT22;14766;51.380;13.762;2023-05-16T02:51:20;17.10;57.60
27266;DHT22;14766;51.380;13.762;2023-05-16T02:53:48;17.10;57.60
27266;DHT22;14766;51.380;13.762;2023-05-16T02:56:17;17.10;57.70
27266;DHT22;14766;51.380;13.762;2023-05-16T02:58:49;17.10;57.80
27266;DHT22;14766;51.380;13.762;2023-05-16T03:01:16;17.00;57.70
27266;DHT22;14766;51.380;13.762;2023-05-16T03:03:44;17.00;57.90
27266;DHT22;14766;51.380;13.762;2023-05-16T03:06:11;16.90;57.90
27266;DHT22;14766;51.380;13.762;2023-05-16T03:08:38;16.90;57.90
27266;DHT22;14766;51.380;13.762;2023-05-16T03:11:05;16.90;58.10
27266;DHT22;14766;51.380;13.762;2023-05-16T03:13:32;16.90;58.20
27266;DHT22;14766;51.380;13.762;2023-05-16T03:15:59;16.80;58.40
27266;DHT22;14766;51.380;13.762;2023-05-16T03:18:27;16.80;58.50
27266;DHT22;14766;51.380;13.762;2023-05-16T03:20:54;16.70;58.70
27266;DHT22;14766;51.380;13.762;2023-05-16T03:23:22;16.70;58.80
27266;DHT22;14766;51.380;13.762;2023-05-16T03:25:50;16.60;59.10
27266;DHT22;14766;51.380;13.762;2023-05-16T03:28:19;16.60;59.20
27266;DHT22;14766;51.380;13.762;2023-05-16T03:30:47;16.50;59.40
27266;DHT22;14766;51.380;13.762;2023-05-16T03:33:14;16.50;59.50
27266;DHT22;14766;51.380;13.762;2023-05-16T03:35:41;16.40;59.70
27266;DHT22;14766;51.380;13.762;2023-05-16T03:38:09;16.40;59.60
27266;DHT22;14766;51.380;13.762;2023-05-16T03:40:36;16.30;59.80
27266;DHT22;14766;51.380;13.762;2023-05-16T03:43:03;16.30;59.80
27266;DHT22;14766;51.380;13.762;2023-05-16T03:45:31;16.30;60.00
27266;DHT22;14766;51.380;13.762;2023-05-16T03:47:58;16.30;59.90
27266;DHT22;14766;51.380;13.762;2023-05-16T03:50:26;16.20;59.90
27266;DHT22;14766;51.380;13.762;2023-05-16T03:52:53;16.20;59.90
27266;DHT22;14766;51.380;13.762;2023-05-16T03:55:20;16.20;60.10
27266;DHT22;14766;51.380;13.762;2023-05-16T03:57:48;16.20;60.10
27266;DHT22;14766;51.380;13.762;2023-05-16T04:00:16;16.20;60.30
27266;DHT22;14766;51.380;13.762;2023-05-16T04:02:43;16.20;60.10
27266;DHT22;14766;51.380;13.762;2023-05-16T04:05:11;16.10;60.20
27266;DHT22;14766;51.380;13.762;2023-05-16T04:07:40;16.10;60.20
27266;DHT22;14766;51.380;13.762;2023-05-16T04:10:08;16.10;60.10
27266;DHT22;14766;51.380;13.762;2023-05-16T04:12:35;16.10;60.10
27266;DHT22;14766;51.380;13.762;2023-05-16T04:15:03;16.10;60.20
27266;DHT22;14766;51.380;13.762;2023-05-16T04:17:32;16.10;60.20
27266;DHT22;14766;51.380;13.762;2023-05-16T04:19:59;16.10;61.10
27266;DHT22;14766;51.380;13.762;2023-05-16T04:22:26;16.10;60.20
27266;DHT22;14766;51.380;13.762;2023-05-16T04:24:53;16.10;60.40
27266;DHT22;14766;51.380;13.762;2023-05-16T04:27:20;16.20;60.50
27266;DHT22;14766;51.380;13.762;2023-05-16T04:29:48;16.20;60.30
27266;DHT22;14766;51.380;13.762;2023-05-16T04:32:16;16.20;60.30
27266;DHT22;14766;51.380;13.762;2023-05-16T04:34:44;16.20;60.10
27266;DHT22;14766;51.380;13.762;2023-05-16T04:37:12;16.20;60.20
27266;DHT22;14766;51.380;13.762;2023-05-16T04:39:40;16.20;60.10
27266;DHT22;14766;51.380;13.762;2023-05-16T04:42:07;16.20;60.10
27266;DHT22;14766;51.380;13.762;2023-05-16T04:44:34;16.20;60.40
27266;DHT22;14766;51.380;13.762;2023-05-16T04:47:01;16.20;60.40
27266;DHT22;14766;51.380;13.762;2023-05-16T04:49:29;16.20;60.50
27266;DHT22;14766;51.380;13.762;2023-05-16T04:51:57;16.20;60.70
27266;DHT22;14766;51.380;13.762;2023-05-16T04:54:24;16.20;60.60
27266;DHT22;14766;51.380;13.762;2023-05-16T04:56:52;16.20;60.60
27266;DHT22;14766;51.380;13.762;2023-05-16T04:59:20;16.20;60.80
27266;DHT22;14766;51.380;13.762;2023-05-16T05:01:48;16.20;61.00
27266;DHT22;14766;51.380;13.762;2023-05-16T05:04:15;16.20;60.80
27266;DHT22;14766;51.380;13.762;2023-05-16T05:06:43;16.20;60.80
27266;DHT22;14766;51.380;13.762;2023-05-16T05:09:11;16.10;60.90
27266;DHT22;14766;51.380;13.762;2023-05-16T05:11:38;16.10;60.90
27266;DHT22;14766;51.380;13.762;2023-05-16T05:14:05;16.10;60.80
27266;DHT22;14766;51.380;13.762;2023-05-16T05:16:32;16.10;60.90
27266;DHT22;14766;51.380;13.762;2023-05-16T05:18:59;16.10;60.90
27266;DHT22;14766;51.380;13.762;2023-05-16T05:21:26;16.10;60.70
27266;DHT22;14766;51.380;13.762;2023-05-16T05:23:53;16.10;60.90
27266;DHT22;14766;51.380;13.762;2023-05-16T05:26:20;16.10;61.00
27266;DHT22;14766;51.380;13.762;2023-05-16T05:28:48;16.10;61.20
27266;DHT22;14766;51.380;13.762;2023-05-16T05:31:31;16.10;60.90
27266;DHT22;14766;51.380;13.762;2023-05-16T05:34:02;16.10;60.80
27266;DHT22;14766;51.380;13.762;2023-05-16T05:36:29;16.10;60.50
27266;DHT22;14766;51.380;13.762;2023-05-16T05:38:56;16.20;60.30
27266;DHT22;14766;51.380;13.762;2023-05-16T05:41:24;16.20;60.00
27266;DHT22;14766;51.380;13.762;2023-05-16T05:43:52;16.20;59.80
27266;DHT22;14766;51.380;13.762;2023-05-16T05:46:19;16.20;59.80
27266;DHT22;14766;51.380;13.762;2023-05-16T05:48:46;16.20;59.80
27266;DHT22;14766;51.380;13.762;2023-05-16T05:51:14;16.20;59.80
27266;DHT22;14766;51.380;13.762;2023-05-16T05:53:41;16.20;59.70
27266;DHT22;14766;51.380;13.762;2023-05-16T05:56:08;16.20;59.60
27266;DHT22;14766;51.380;13.762;2023-05-16T05:58:35;16.20;59.60
27266;DHT22;14766;51.380;13.762;2023-05-16T06:01:02;16.20;59.60
27266;DHT22;14766;51.380;13.762;2023-05-16T06:03:29;16.20;59.60
27266;DHT22;14766;51.380;13.762;2023-05-16T06:05:57;16.20;59.60
27266;DHT22;14766;51.380;13.762;2023-05-16T06:08:26;16.20;59.70
27266;DHT22;14766;51.380;13.762;2023-05-16T06:10:53;16.30;59.70
27266;DHT22;14766;51.380;13.762;2023-05-16T06:13:20;16.30;59.50
27266;DHT22;14766;51.380;13.762;2023-05-16T06:15:51;16.30;59.50
27266;DHT22;14766;51.380;13.762;2023-05-16T06:18:18;16.30;59.30
27266;DHT22;14766;51.380;13.762;2023-05-16T06:20:46;16.30;59.40
27266;DHT22;14766;51.380;13.762;2023-05-16T06:23:15;16.30;59.30
27266;DHT22;14766;51.380;13.762;2023-05-16T06:25:47;16.30;59.20
27266;DHT22;14766;51.380;13.762;2023-05-16T06:28:14;16.30;59.20
27266;DHT22;14766;51.380;13.762;2023-05-16T06:30:42;16.30;59.10
27266;DHT22;14766;51.380;13.762;2023-05-16T06:33:09;16.30;59.10
27266;DHT22;14766;51.380;13.762;2023-05-16T06:35:36;16.30;59.10
27266;DHT22;14766;51.380;13.762;2023-05-16T06:38:04;16.30;59.20
27266;DHT22;14766;51.380;13.762;2023-05-16T06:40:31;16.30;59.10
27266;DHT22;14766;51.380;13.762;2023-05-16T06:42:58;16.30;59.00
27266;DHT22;14766;51.380;13.762;2023-05-16T06:45:25;16.30;59.00
27266;DHT22;14766;51.380;13.762;2023-05-16T06:47:52;16.30;59.00
27266;DHT22;14766;51.380;13.762;2023-05-16T06:50:23;16.30;59.00
27266;DHT22;14766;51.380;13.762;2023-05-16T06:52:50;16.30;59.00
27266;DHT22;14766;51.380;13.762;2023-05-16T06:55:20;16.30;59.00
27266;DHT22;14766;51.380;13.762;2023-05-16T06:57:47;16.20;59.00
27266;DHT22;14766;51.380;13.762;2023-05-16T07:00:14;16.20;59.00
27266;DHT22;14766;51.380;13.762;2023-05-16T07:02:41;16.20;59.20
27266;DHT22;14766;51.380;13.762;2023-05-16T07:05:09;16.20;59.20
27266;DHT22;14766;51.380;13.762;2023-05-16T07:07:36;16.20;59.30
27266;DHT22;14766;51.380;13.762;2023-05-16T07:10:03;16.10;59.30
27266;DHT22;14766;51.380;13.762;2023-05-16T07:12:30;16.10;59.40
27266;DHT22;14766;51.380;13.762;2023-05-16T07:14:57;16.10;59.40
27266;DHT22;14766;51.380;13.762;2023-05-16T07:17:25;16.10;59.40
27266;DHT22;14766;51.380;13.762;2023-05-16T07:19:52;16.10;59.40
27266;DHT22;14766;51.380;13.762;2023-05-16T07:22:19;16.10;59.40
27266;DHT22;14766;51.380;13.762;2023-05-16T07:24:46;16.00;59.20
27266;DHT22;14766;51.380;13.762;2023-05-16T07:27:13;16.10;59.10
27266;DHT22;14766;51.380;13.762;2023-05-16T07:29:40;16.00;58.90
27266;DHT22;14766;51.380;13.762;2023-05-16T07:32:07;16.00;59.10
27266;DHT22;14766;51.380;13.762;2023-05-16T07:34:35;16.00;59.10
27266;DHT22;14766;51.380;13.762;2023-05-16T07:37:02;16.00;59.10
27266;DHT22;14766;51.380;13.762;2023-05-16T07:39:29;16.00;59.00
27266;DHT22;14766;51.380;13.762;2023-05-16T07:41:56;16.00;59.10
27266;DHT22;14766;51.380;13.762;2023-05-16T07:44:24;16.00;59.20
27266;DHT22;14766;51.380;13.762;2023-05-16T07:46:53;16.00;59.00
27266;DHT22;14766;51.380;13.762;2023-05-16T07:49:20;16.00;59.00
27266;DHT22;14766;51.380;13.762;2023-05-16T07:51:49;16.00;58.90
27266;DHT22;14766;51.380;13.762;2023-05-16T07:54:16;16.00;59.50
27266;DHT22;14766;51.380;13.762;2023-05-16T07:56:43;16.00;58.70
27266;DHT22;14766;51.380;13.762;2023-05-16T07:59:10;16.10;58.80
27266;DHT22;14766;51.380;13.762;2023-05-16T08:01:38;16.10;58.80
27266;DHT22;14766;51.380;13.762;2023-05-16T08:04:05;16.10;58.80
27266;DHT22;14766;51.380;13.762;2023-05-16T08:06:34;16.10;58.80
27266;DHT22;14766;51.380;13.762;2023-05-16T08:09:03;16.10;58.80
27266;DHT22;14766;51.380;13.762;2023-05-16T08:11:31;16.10;58.70
27266;DHT22;14766;51.380;13.762;2023-05-16T08:13:58;16.20;58.60
27266;DHT22;14766;51.380;13.762;2023-05-16T08:16:26;16.10;58.40
27266;DHT22;14766;51.380;13.762;2023-05-16T08:18:53;16.20;58.60
27266;DHT22;14766;51.380;13.762;2023-05-16T08:21:20;16.20;58.60
27266;DHT22;14766;51.380;13.762;2023-05-16T08:23:47;16.20;58.70
27266;DHT22;14766;51.380;13.762;2023-05-16T08:26:16;16.20;58.60
27266;DHT22;14766;51.380;13.762;2023-05-16T08:28:44;16.30;58.50
27266;DHT22;14766;51.380;13.762;2023-05-16T08:31:11;16.30;58.60
27266;DHT22;14766;51.380;13.762;2023-05-16T08:33:38;16.30;58.30
27266;DHT22;14766;51.380;13.762;2023-05-16T08:36:06;16.30;58.00
27266;DHT22;14766;51.380;13.762;2023-05-16T08:38:33;16.30;57.60
27266;DHT22;14766;51.380;13.762;2023-05-16T08:41:00;16.20;57.60
27266;DHT22;14766;51.380;13.762;2023-05-16T08:43:28;16.20;57.80
27266;DHT22;14766;51.380;13.762;2023-05-16T08:45:55;16.10;58.00
27266;DHT22;14766;51.380;13.762;2023-05-16T08:48:24;16.10;58.10
27266;DHT22;14766;51.380;13.762;2023-05-16T08:50:52;16.10;58.20
27266;DHT22;14766;51.380;13.762;2023-05-16T08:53:30;16.20;58.20
27266;DHT22;14766;51.380;13.762;2023-05-16T08:55:59;16.20;58.10
27266;DHT22;14766;51.380;13.762;2023-05-16T08:58:27;16.20;57.90
27266;DHT22;14766;51.380;13.762;2023-05-16T09:00:56;16.20;57.60
27266;DHT22;14766;51.380;13.762;2023-05-16T09:03:23;16.20;57.80
27266;DHT22;14766;51.380;13.762;2023-05-16T09:05:51;16.20;57.60
27266;DHT22;14766;51.380;13.762;2023-05-16T09:08:18;16.20;57.60
27266;DHT22;14766;51.380;13.762;2023-05-16T09:10:45;16.30;57.70
27266;DHT22;14766;51.380;13.762;2023-05-16T09:13:13;16.30;57.70
27266;DHT22;14766;51.380;13.762;2023-05-16T09:15:40;16.30;57.60
27266;DHT22;14766;51.380;13.762;2023-05-16T09:18:11;16.30;57.60
27266;DHT22;14766;51.380;13.762;2023-05-16T09:20:45;16.30;57.60
27266;DHT22;14766;51.380;13.762;2023-05-16T09:23:14;16.40;57.80
27266;DHT22;14766;51.380;13.762;2023-05-16T09:25:51;16.40;57.90
27266;DHT22;14766;51.380;13.762;2023-05-16T09:28:19;16.50;58.00
27266;DHT22;14766;51.380;13.762;2023-05-16T09:30:46;16.50;58.00
27266;DHT22;14766;51.380;13.762;2023-05-16T09:33:14;16.60;57.60
27266;DHT22;14766;51.380;13.762;2023-05-16T09:35:42;16.70;57.30
27266;DHT22;14766;51.380;13.762;2023-05-16T09:38:17;16.70;57.00
27266;DHT22;14766;51.380;13.762;2023-05-16T09:40:44;16.80;56.90
27266;DHT22;14766;51.380;13.762;2023-05-16T09:43:15;16.80;56.70
27266;DHT22;14766;51.380;13.762;2023-05-16T09:45:47;16.90;56.40
27266;DHT22;14766;51.380;13.762;2023-05-16T09:48:15;16.80;56.30
27266;DHT22;14766;51.380;13.762;2023-05-16T09:50:52;16.80;56.20
27266;DHT22;14766;51.380;13.762;2023-05-16T09:53:27;16.90;56.00
27266;DHT22;14766;51.380;13.762;2023-05-16T09:56:14;16.80;55.90
27266;DHT22;14766;51.380;13.762;2023-05-16T09:58:43;16.90;55.80
27266;DHT22;14766;51.380;13.762;2023-05-16T10:01:12;16.80;55.80
27266;DHT22;14766;51.380;13.762;2023-05-16T10:03:41;16.90;55.80
27266;DHT22;14766;51.380;13.762;2023-05-16T10:06:11;16.90;56.00
27266;DHT22;14766;51.380;13.762;2023-05-16T10:08:41;16.80;55.80
27266;DHT22;14766;51.380;13.762;2023-05-16T10:11:09;16.80;55.80
27266;DHT22;14766;51.380;13.762;2023-05-16T10:13:37;16.80;55.60
27266;DHT22;14766;51.380;13.762;2023-05-16T10:16:13;16.90;55.70
27266;DHT22;14766;51.380;13.762;2023-05-16T10:18:41;16.90;56.40
27266;DHT22;14766;51.380;13.762;2023-05-16T10:21:13;16.80;55.70
27266;DHT22;14766;51.380;13.762;2023-05-16T10:23:42;16.80;55.60
27266;DHT22;14766;51.380;13.762;2023-05-16T10:26:10;16.80;55.00
27266;DHT22;14766;51.380;13.762;2023-05-16T10:28:41;16.80;55.20
27266;DHT22;14766;51.380;13.762;2023-05-16T10:31:10;16.70;55.60
27266;DHT22;14766;51.380;13.762;2023-05-16T10:33:38;16.70;55.80
27266;DHT22;14766;51.380;13.762;2023-05-16T10:36:09;16.70;55.80
27266;DHT22;14766;51.380;13.762;2023-05-16T10:38:37;16.80;55.70
27266;DHT22;14766;51.380;13.762;2023-05-16T10:41:06;16.80;56.00
27266;DHT22;14766;51.380;13.762;2023-05-16T10:43:34;16.90;56.10
27266;DHT22;14766;51.380;13.762;2023-05-16T10:46:07;16.90;55.80
27266;DHT22;14766;51.380;13.762;2023-05-16T10:48:39;17.00;55.70
27266;DHT22;14766;51.380;13.762;2023-05-16T10:53:53;17.10;55.30
27266;DHT22;14766;51.380;13.762;2023-05-16T10:56:25;17.10;54.70
27266;DHT22;14766;51.380;13.762;2023-05-16T10:58:53;17.20;54.90
27266;DHT22;14766;51.380;13.762;2023-05-16T11:01:34;17.20;55.00
27266;DHT22;14766;51.380;13.762;2023-05-16T11:04:05;17.20;55.00
27266;DHT22;14766;51.380;13.762;2023-05-16T11:14:19;17.40;55.10
27266;DHT22;14766;51.380;13.762;2023-05-16T11:16:58;17.50;55.00
27266;DHT22;14766;51.380;13.762;2023-05-16T11:19:34;17.50;54.90
27266;DHT22;14766;51.380;13.762;2023-05-16T11:22:20;17.50;54.70
27266;DHT22;14766;51.380;13.762;2023-05-16T11:25:02;17.60;54.60
27266;DHT22;14766;51.380;13.762;2023-05-16T11:27:41;17.70;54.80
27266;DHT22;14766;51.380;13.762;2023-05-16T11:30:16;17.80;54.80
27266;DHT22;14766;51.380;13.762;2023-05-16T11:32:46;17.90;54.80
27266;DHT22;14766;51.380;13.762;2023-05-16T11:35:16;18.10;54.70
27266;DHT22;14766;51.380;13.762;2023-05-16T11:37:44;18.20;54.10
27266;DHT22;14766;51.380;13.762;2023-05-16T11:40:13;18.30;53.30
27266;DHT22;14766;51.380;13.762;2023-05-16T11:42:43;18.40;52.90
27266;DHT22;14766;51.380;13.762;2023-05-16T11:45:16;18.60;52.80
27266;DHT22;14766;51.380;13.762;2023-05-16T11:47:44;18.60;52.00
27266;DHT22;14766;51.380;13.762;2023-05-16T11:50:18;18.70;52.00
27266;DHT22;14766;51.380;13.762;2023-05-16T11:52:50;18.70;51.60
27266;DHT22;14766;51.380;13.762;2023-05-16T11:55:27;18.80;51.30
27266;DHT22;14766;51.380;13.762;2023-05-16T11:58:08;18.80;51.30
27266;DHT22;14766;51.380;13.762;2023-05-16T12:00:36;18.80;51.40
27266;DHT22;14766;51.380;13.762;2023-05-16T12:03:03;18.90;51.50
27266;DHT22;14766;51.380;13.762;2023-05-16T12:05:32;18.90;51.90
27266;DHT22;14766;51.380;13.762;2023-05-16T12:08:01;18.90;50.90
27266;DHT22;14766;51.380;13.762;2023-05-16T12:10:31;18.90;50.70
27266;DHT22;14766;51.380;13.762;2023-05-16T12:13:01;18.90;50.80
27266;DHT22;14766;51.380;13.762;2023-05-16T12:15:28;18.90;50.90
27266;DHT22;14766;51.380;13.762;2023-05-16T12:17:56;18.90;50.90
27266;DHT22;14766;51.380;13.762;2023-05-16T12:20:23;18.90;50.80
27266;DHT22;14766;51.380;13.762;2023-05-16T12:22:52;19.00;50.80
27266;DHT22;14766;51.380;13.762;2023-05-16T12:27:58;19.00;51.30
27266;DHT22;14766;51.380;13.762;2023-05-16T12:30:28;19.00;51.30
27266;DHT22;14766;51.380;13.762;2023-05-16T12:32:58;19.00;51.00
27266;DHT22;14766;51.380;13.762;2023-05-16T12:35:31;19.10;50.40
27266;DHT22;14766;51.380;13.762;2023-05-16T12:38:00;19.10;50.40
27266;DHT22;14766;51.380;13.762;2023-05-16T12:40:29;19.00;50.30
27266;DHT22;14766;51.380;13.762;2023-05-16T12:42:57;19.00;50.20
27266;DHT22;14766;51.380;13.762;2023-05-16T12:45:25;19.00;50.50
27266;DHT22;14766;51.380;13.762;2023-05-16T12:47:53;18.90;50.50
27266;DHT22;14766;51.380;13.762;2023-05-16T12:50:22;18.90;50.80
27266;DHT22;14766;51.380;13.762;2023-05-16T12:52:52;18.90;50.80
27266;DHT22;14766;51.380;13.762;2023-05-16T12:55:21;18.80;51.00
27266;DHT22;14766;51.380;13.762;2023-05-16T12:57:49;18.80;51.10
27266;DHT22;14766;51.380;13.762;2023-05-16T13:00:19;18.80;51.10
27266;DHT22;14766;51.380;13.762;2023-05-16T13:02:47;18.80;51.20
27266;DHT22;14766;51.380;13.762;2023-05-16T13:05:15;18.80;51.30
27266;DHT22;14766;51.380;13.762;2023-05-16T13:07:43;18.80;51.40
27266;DHT22;14766;51.380;13.762;2023-05-16T13:10:10;18.80;51.60
27266;DHT22;14766;51.380;13.762;2023-05-16T13:12:39;18.80;51.30
27266;DHT22;14766;51.380;13.762;2023-05-16T13:15:08;18.90;51.20
27266;DHT22;14766;51.380;13.762;2023-05-16T13:17:40;18.90;51.10
27266;DHT22;14766;51.380;13.762;2023-05-16T13:20:07;18.90;51.20
27266;DHT22;14766;51.380;13.762;2023-05-16T13:22:36;18.90;51.10
27266;DHT22;14766;51.380;13.762;2023-05-16T13:25:04;18.90;51.00
27266;DHT22;14766;51.380;13.762;2023-05-16T13:27:33;18.90;50.90
27266;DHT22;14766;51.380;13.762;2023-05-16T13:30:02;18.90;50.70
27266;DHT22;14766;51.380;13.762;2023-05-16T13:32:30;18.90;50.80
27266;DHT22;14766;51.380;13.762;2023-05-16T13:34:57;18.90;50.80
27266;DHT22;14766;51.380;13.762;2023-05-16T13:37:24;18.90;50.80
27266;DHT22;14766;51.380;13.762;2023-05-16T13:39:51;18.80;50.70
27266;DHT22;14766;51.380;13.762;2023-05-16T13:42:20;18.70;50.60
27266;DHT22;14766;51.380;13.762;2023-05-16T13:44:48;18.70;50.70
27266;DHT22;14766;51.380;13.762;2023-05-16T13:47:30;18.70;50.80
27266;DHT22;14766;51.380;13.762;2023-05-16T13:50:05;18.70;50.60
27266;DHT22;14766;51.380;13.762;2023-05-16T13:52:36;18.60;50.80
27266;DHT22;14766;51.380;13.762;2023-05-16T13:55:04;18.60;50.80
27266;DHT22;14766;51.380;13.762;2023-05-16T13:57:32;18.60;50.90
27266;DHT22;14766;51.380;13.762;2023-05-16T13:59:59;18.60;51.00
27266;DHT22;14766;51.380;13.762;2023-05-16T14:02:38;18.50;51.00
27266;DHT22;14766;51.380;13.762;2023-05-16T14:05:09;18.50;51.00
27266;DHT22;14766;51.380;13.762;2023-05-16T14:07:36;18.50;51.00
27266;DHT22;14766;51.380;13.762;2023-05-16T14:10:04;18.50;51.70
27266;DHT22;14766;51.380;13.762;2023-05-16T14:12:33;18.50;51.10
27266;DHT22;14766;51.380;13.762;2023-05-16T14:15:00;18.50;51.80
27266;DHT22;14766;51.380;13.762;2023-05-16T14:17:32;18.50;51.20
27266;DHT22;14766;51.380;13.762;2023-05-16T14:20:02;18.50;51.10
27266;DHT22;14766;51.380;13.762;2023-05-16T14:22:35;18.50;51.10
27266;DHT22;14766;51.380;13.762;2023-05-16T14:25:02;18.50;51.20
27266;DHT22;14766;51.380;13.762;2023-05-16T14:27:29;18.50;51.30
27266;DHT22;14766;51.380;13.762;2023-05-16T14:29:56;18.50;51.30
27266;DHT22;14766;51.380;13.762;2023-05-16T14:32:24;18.50;51.20
27266;DHT22;14766;51.380;13.762;2023-05-16T14:34:52;18.50;51.20
27266;DHT22;14766;51.380;13.762;2023-05-16T14:37:19;18.60;51.10
27266;DHT22;14766;51.380;13.762;2023-05-16T14:39:47;18.60;51.00
27266;DHT22;14766;51.380;13.762;2023-05-16T14:42:16;18.60;50.70
27266;DHT22;14766;51.380;13.762;2023-05-16T14:44:43;18.60;50.40
27266;DHT22;14766;51.380;13.762;2023-05-16T14:47:12;18.60;50.50
27266;DHT22;14766;51.380;13.762;2023-05-16T14:49:39;18.60;50.50
27266;DHT22;14766;51.380;13.762;2023-05-16T14:52:06;18.60;50.60
27266;DHT22;14766;51.380;13.762;2023-05-16T14:54:34;18.60;50.30
27266;DHT22;14766;51.380;13.762;2023-05-16T14:57:01;18.60;50.30
27266;DHT22;14766;51.380;13.762;2023-05-16T14:59:29;18.60;50.30
27266;DHT22;14766;51.380;13.762;2023-05-16T15:01:57;18.60;50.40
27266;DHT22;14766;51.380;13.762;2023-05-16T15:04:26;18.60;50.30
27266;DHT22;14766;51.380;13.762;2023-05-16T15:06:54;18.60;50.30
27266;DHT22;14766;51.380;13.762;2023-05-16T15:09:21;18.60;50.30
27266;DHT22;14766;51.380;13.762;2023-05-16T15:11:48;18.60;50.20
27266;DHT22;14766;51.380;13.762;2023-05-16T15:14:15;18.60;50.30
27266;DHT22;14766;51.380;13.762;2023-05-16T15:16:42;18.50;50.20
27266;DHT22;14766;51.380;13.762;2023-05-16T15:19:09;18.50;51.00
27266;DHT22;14766;51.380;13.762;2023-05-16T15:21:37;18.50;50.40
27266;DHT22;14766;51.380;13.762;2023-05-16T15:24:04;18.50;50.30
27266;DHT22;14766;51.380;13.762;2023-05-16T15:26:33;18.50;50.30
27266;DHT22;14766;51.380;13.762;2023-05-16T15:29:01;18.50;50.30
27266;DHT22;14766;51.380;13.762;2023-05-16T15:31:28;18.50;50.40
27266;DHT22;14766;51.380;13.762;2023-05-16T15:33:57;18.50;50.20
27266;DHT22;14766;51.380;13.762;2023-05-16T15:36:25;18.50;50.30
27266;DHT22;14766;51.380;13.762;2023-05-16T15:38:53;18.50;50.30
27266;DHT22;14766;51.380;13.762;2023-05-16T15:41:20;18.50;50.00
27266;DHT22;14766;51.380;13.762;2023-05-16T15:44:07;18.50;49.90
27266;DHT22;14766;51.380;13.762;2023-05-16T15:46:34;18.50;49.90
27266;DHT22;14766;51.380;13.762;2023-05-16T15:49:02;18.50;50.00
27266;DHT22;14766;51.380;13.762;2023-05-16T15:51:30;18.60;50.30